sensor_id;sensor_type;location;lat;lon;timestamp;temperature;humidity
80367;DHT22;70058;42.660;23.366;2024-01-30T00:02:21;2.80;50.30
80367;DHT22;70058;42.660;23.366;2024-01-30T00:04:47;2.50;50.50
80367;DHT22;70058;42.660;23.366;2024-01-30T00:07:13;2.40;51.00
80367;DHT22;70058;42.660;23.366;2024-01-30T00:09:38;2.60;50.70
80367;DHT22;70058;42.660;23.366;2024-01-30T00:12:06;2.60;50.90
80367;DHT22;70058;42.660;23.366;2024-01-30T00:14:32;2.70;50.80
80367;DHT22;70058;42.660;23.366;2024-01-30T00:16:57;2.60;50.60
80367;DHT22;70058;42.660;23.366;2024-01-30T00:19:23;2.30;50.90
80367;DHT22;70058;42.660;23.366;2024-01-30T00:21:48;2.40;51.00
80367;DHT22;70058;42.660;23.366;2024-01-30T00:24:14;2.50;51.40
80367;DHT22;70058;42.660;23.366;2024-01-30T00:26:40;2.50;51.50
80367;DHT22;70058;42.660;23.366;2024-01-30T00:29:05;2.60;51.10
80367;DHT22;70058;42.660;23.366;2024-01-30T00:31:31;2.70;50.70
80367;DHT22;70058;42.660;23.366;2024-01-30T00:33:57;2.70;50.80
80367;DHT22;70058;42.660;23.366;2024-01-30T00:36:22;2.70;50.30
80367;DHT22;70058;42.660;23.366;2024-01-30T00:38:48;2.40;50.90
80367;DHT22;70058;42.660;23.366;2024-01-30T00:41:14;2.30;51.10
80367;DHT22;70058;42.660;23.366;2024-01-30T00:43:40;2.30;51.20
80367;DHT22;70058;42.660;23.366;2024-01-30T00:46:05;2.40;51.40
80367;DHT22;70058;42.660;23.366;2024-01-30T00:48:31;2.10;51.80
80367;DHT22;70058;42.660;23.366;2024-01-30T00:50:57;2.10;51.80
80367;DHT22;70058;42.660;23.366;2024-01-30T00:53:22;2.40;51.70
80367;DHT22;70058;42.660;23.366;2024-01-30T00:55:48;2.50;50.80
80367;DHT22;70058;42.660;23.366;2024-01-30T00:58:14;2.50;50.80
80367;DHT22;70058;42.660;23.366;2024-01-30T01:00:39;2.50;50.70
80367;DHT22;70058;42.660;23.366;2024-01-30T01:03:05;2.50;50.70
80367;DHT22;70058;42.660;23.366;2024-01-30T01:05:31;2.60;50.60
80367;DHT22;70058;42.660;23.366;2024-01-30T01:07:56;2.70;50.40
80367;DHT22;70058;42.660;23.366;2024-01-30T01:10:22;2.70;50.80
80367;DHT22;70058;42.660;23.366;2024-01-30T01:12:48;2.80;49.70
80367;DHT22;70058;42.660;23.366;2024-01-30T01:15:14;2.90;49.80
80367;DHT22;70058;42.660;23.366;2024-01-30T01:17:40;2.90;49.80
80367;DHT22;70058;42.660;23.366;2024-01-30T01:20:06;2.50;49.90
80367;DHT22;70058;42.660;23.366;2024-01-30T01:22:32;2.60;50.90
80367;DHT22;70058;42.660;23.366;2024-01-30T01:24:59;2.60;50.20
80367;DHT22;70058;42.660;23.366;2024-01-30T01:27:25;2.50;50.70
80367;DHT22;70058;42.660;23.366;2024-01-30T01:29:51;2.70;50.80
80367;DHT22;70058;42.660;23.366;2024-01-30T01:32:17;2.70;50.30
80367;DHT22;70058;42.660;23.366;2024-01-30T01:34:43;2.50;50.10
80367;DHT22;70058;42.660;23.366;2024-01-30T01:37:09;2.50;50.30
80367;DHT22;70058;42.660;23.366;2024-01-30T01:39:34;2.50;51.10
80367;DHT22;70058;42.660;23.366;2024-01-30T01:42:00;2.40;51.80
80367;DHT22;70058;42.660;23.366;2024-01-30T01:44:26;2.40;51.10
80367;DHT22;70058;42.660;23.366;2024-01-30T01:46:52;2.40;51.70
80367;DHT22;70058;42.660;23.366;2024-01-30T01:49:20;2.60;51.60
80367;DHT22;70058;42.660;23.366;2024-01-30T01:51:47;2.50;51.50
80367;DHT22;70058;42.660;23.366;2024-01-30T01:54:14;2.70;50.70
80367;DHT22;70058;42.660;23.366;2024-01-30T01:56:42;2.60;50.30
80367;DHT22;70058;42.660;23.366;2024-01-30T01:59:08;2.60;50.10
80367;DHT22;70058;42.660;23.366;2024-01-30T02:01:36;2.70;50.40
80367;DHT22;70058;42.660;23.366;2024-01-30T02:04:02;2.80;50.40
80367;DHT22;70058;42.660;23.366;2024-01-30T02:06:28;2.70;50.20
80367;DHT22;70058;42.660;23.366;2024-01-30T02:08:54;2.70;50.20
80367;DHT22;70058;42.660;23.366;2024-01-30T02:11:21;2.60;50.20
80367;DHT22;70058;42.660;23.366;2024-01-30T02:13:47;2.50;50.10
80367;DHT22;70058;42.660;23.366;2024-01-30T02:16:13;2.70;50.00
80367;DHT22;70058;42.660;23.366;2024-01-30T02:18:38;2.80;49.70
80367;DHT22;70058;42.660;23.366;2024-01-30T02:21:08;2.90;49.70
80367;DHT22;70058;42.660;23.366;2024-01-30T02:23:34;2.80;49.70
80367;DHT22;70058;42.660;23.366;2024-01-30T02:26:00;2.80;49.80
80367;DHT22;70058;42.660;23.366;2024-01-30T02:28:26;2.80;50.00
80367;DHT22;70058;42.660;23.366;2024-01-30T02:30:53;3.00;49.00
80367;DHT22;70058;42.660;23.366;2024-01-30T02:33:18;2.90;49.00
80367;DHT22;70058;42.660;23.366;2024-01-30T02:35:44;2.80;49.40
80367;DHT22;70058;42.660;23.366;2024-01-30T02:38:10;2.60;49.50
80367;DHT22;70058;42.660;23.366;2024-01-30T02:40:36;2.70;50.00
80367;DHT22;70058;42.660;23.366;2024-01-30T02:43:02;2.90;49.50
80367;DHT22;70058;42.660;23.366;2024-01-30T02:45:28;3.10;48.40
80367;DHT22;70058;42.660;23.366;2024-01-30T02:47:54;3.00;49.50
80367;DHT22;70058;42.660;23.366;2024-01-30T02:50:19;3.20;49.30
80367;DHT22;70058;42.660;23.366;2024-01-30T02:52:45;3.30;49.30
80367;DHT22;70058;42.660;23.366;2024-01-30T02:55:11;3.40;48.70
80367;DHT22;70058;42.660;23.366;2024-01-30T02:57:38;3.50;47.80
80367;DHT22;70058;42.660;23.366;2024-01-30T03:00:04;3.50;48.10
80367;DHT22;70058;42.660;23.366;2024-01-30T03:02:34;3.40;48.10
80367;DHT22;70058;42.660;23.366;2024-01-30T03:04:59;3.30;48.10
80367;DHT22;70058;42.660;23.366;2024-01-30T03:07:25;3.40;47.90
80367;DHT22;70058;42.660;23.366;2024-01-30T03:09:51;3.50;47.80
80367;DHT22;70058;42.660;23.366;2024-01-30T03:12:17;3.50;47.30
80367;DHT22;70058;42.660;23.366;2024-01-30T03:14:42;3.50;47.60
80367;DHT22;70058;42.660;23.366;2024-01-30T03:17:08;3.40;47.70
80367;DHT22;70058;42.660;23.366;2024-01-30T03:19:33;3.50;47.50
80367;DHT22;70058;42.660;23.366;2024-01-30T03:21:59;3.50;47.70
80367;DHT22;70058;42.660;23.366;2024-01-30T03:24:25;3.40;48.00
80367;DHT22;70058;42.660;23.366;2024-01-30T03:26:51;3.40;47.90
80367;DHT22;70058;42.660;23.366;2024-01-30T03:29:17;3.40;47.90
80367;DHT22;70058;42.660;23.366;2024-01-30T03:31:43;3.40;48.00
80367;DHT22;70058;42.660;23.366;2024-01-30T03:34:08;3.60;47.40
80367;DHT22;70058;42.660;23.366;2024-01-30T03:36:34;3.70;47.00
80367;DHT22;70058;42.660;23.366;2024-01-30T03:39:00;3.60;47.50
80367;DHT22;70058;42.660;23.366;2024-01-30T03:41:26;3.70;47.10
80367;DHT22;70058;42.660;23.366;2024-01-30T03:43:51;3.70;46.50
80367;DHT22;70058;42.660;23.366;2024-01-30T03:46:17;3.60;46.60
80367;DHT22;70058;42.660;23.366;2024-01-30T03:48:42;3.80;46.50
80367;DHT22;70058;42.660;23.366;2024-01-30T03:51:09;3.20;46.20
80367;DHT22;70058;42.660;23.366;2024-01-30T03:53:40;3.30;47.20
80367;DHT22;70058;42.660;23.366;2024-01-30T03:56:06;3.40;47.50
80367;DHT22;70058;42.660;23.366;2024-01-30T03:58:32;3.20;47.00
80367;DHT22;70058;42.660;23.366;2024-01-30T04:00:58;3.30;47.50
80367;DHT22;70058;42.660;23.366;2024-01-30T04:03:23;3.20;47.00
80367;DHT22;70058;42.660;23.366;2024-01-30T04:05:51;3.10;47.30
80367;DHT22;70058;42.660;23.366;2024-01-30T04:08:16;3.00;46.90
80367;DHT22;70058;42.660;23.366;2024-01-30T04:10:42;3.00;47.30
80367;DHT22;70058;42.660;23.366;2024-01-30T04:13:08;2.90;47.50
80367;DHT22;70058;42.660;23.366;2024-01-30T04:15:34;2.80;48.30
80367;DHT22;70058;42.660;23.366;2024-01-30T04:18:00;2.50;47.40
80367;DHT22;70058;42.660;23.366;2024-01-30T04:20:26;2.40;48.60
80367;DHT22;70058;42.660;23.366;2024-01-30T04:22:51;2.00;48.10
80367;DHT22;70058;42.660;23.366;2024-01-30T04:25:17;2.10;49.20
80367;DHT22;70058;42.660;23.366;2024-01-30T04:27:42;2.20;49.00
80367;DHT22;70058;42.660;23.366;2024-01-30T04:30:09;2.30;49.10
80367;DHT22;70058;42.660;23.366;2024-01-30T04:32:35;2.40;48.90
80367;DHT22;70058;42.660;23.366;2024-01-30T04:35:01;2.30;49.70
80367;DHT22;70058;42.660;23.366;2024-01-30T04:37:26;2.40;49.40
80367;DHT22;70058;42.660;23.366;2024-01-30T04:39:53;2.10;48.60
80367;DHT22;70058;42.660;23.366;2024-01-30T04:42:18;2.20;48.90
80367;DHT22;70058;42.660;23.366;2024-01-30T04:44:44;2.20;49.50
80367;DHT22;70058;42.660;23.366;2024-01-30T04:47:09;2.00;49.50
80367;DHT22;70058;42.660;23.366;2024-01-30T04:49:39;2.00;49.90
80367;DHT22;70058;42.660;23.366;2024-01-30T04:52:08;1.90;50.00
80367;DHT22;70058;42.660;23.366;2024-01-30T04:54:34;1.70;50.30
80367;DHT22;70058;42.660;23.366;2024-01-30T04:57:01;1.60;50.50
80367;DHT22;70058;42.660;23.366;2024-01-30T04:59:27;1.60;50.60
80367;DHT22;70058;42.660;23.366;2024-01-30T05:01:53;1.90;50.70
80367;DHT22;70058;42.660;23.366;2024-01-30T05:04:18;2.10;50.40
80367;DHT22;70058;42.660;23.366;2024-01-30T05:06:44;2.10;49.80
80367;DHT22;70058;42.660;23.366;2024-01-30T05:09:10;2.20;49.70
80367;DHT22;70058;42.660;23.366;2024-01-30T05:11:55;1.80;50.10
80367;DHT22;70058;42.660;23.366;2024-01-30T05:14:21;2.00;50.60
80367;DHT22;70058;42.660;23.366;2024-01-30T05:16:47;1.90;50.40
80367;DHT22;70058;42.660;23.366;2024-01-30T05:19:13;1.90;50.50
80367;DHT22;70058;42.660;23.366;2024-01-30T05:21:39;2.00;50.50
80367;DHT22;70058;42.660;23.366;2024-01-30T05:24:05;1.90;51.20
80367;DHT22;70058;42.660;23.366;2024-01-30T05:26:31;1.90;50.70
80367;DHT22;70058;42.660;23.366;2024-01-30T05:29:00;1.80;50.80
80367;DHT22;70058;42.660;23.366;2024-01-30T05:31:26;1.70;51.40
80367;DHT22;70058;42.660;23.366;2024-01-30T05:33:52;1.70;51.40
80367;DHT22;70058;42.660;23.366;2024-01-30T05:36:18;1.50;51.50
80367;DHT22;70058;42.660;23.366;2024-01-30T05:38:43;1.60;51.40
80367;DHT22;70058;42.660;23.366;2024-01-30T05:41:09;1.70;51.10
80367;DHT22;70058;42.660;23.366;2024-01-30T05:43:35;1.90;51.10
80367;DHT22;70058;42.660;23.366;2024-01-30T05:46:01;1.80;51.00
80367;DHT22;70058;42.660;23.366;2024-01-30T05:48:27;1.60;50.80
80367;DHT22;70058;42.660;23.366;2024-01-30T05:50:52;1.70;51.20
80367;DHT22;70058;42.660;23.366;2024-01-30T05:53:18;2.00;50.80
80367;DHT22;70058;42.660;23.366;2024-01-30T05:55:44;2.10;50.50
80367;DHT22;70058;42.660;23.366;2024-01-30T05:58:09;2.00;49.80
80367;DHT22;70058;42.660;23.366;2024-01-30T06:00:35;2.10;49.70
80367;DHT22;70058;42.660;23.366;2024-01-30T06:03:01;2.20;49.50
80367;DHT22;70058;42.660;23.366;2024-01-30T06:05:26;2.30;48.60
80367;DHT22;70058;42.660;23.366;2024-01-30T06:07:52;2.30;48.50
80367;DHT22;70058;42.660;23.366;2024-01-30T06:10:17;2.20;47.60
80367;DHT22;70058;42.660;23.366;2024-01-30T06:12:44;1.50;48.70
80367;DHT22;70058;42.660;23.366;2024-01-30T06:15:09;1.60;49.50
80367;DHT22;70058;42.660;23.366;2024-01-30T06:17:36;1.60;49.40
80367;DHT22;70058;42.660;23.366;2024-01-30T06:20:02;1.50;49.50
80367;DHT22;70058;42.660;23.366;2024-01-30T06:22:29;1.50;49.80
80367;DHT22;70058;42.660;23.366;2024-01-30T06:24:54;1.70;50.00
80367;DHT22;70058;42.660;23.366;2024-01-30T06:27:20;1.80;49.20
80367;DHT22;70058;42.660;23.366;2024-01-30T06:29:46;1.90;49.30
80367;DHT22;70058;42.660;23.366;2024-01-30T06:32:12;1.90;48.10
80367;DHT22;70058;42.660;23.366;2024-01-30T06:34:37;2.00;48.50
80367;DHT22;70058;42.660;23.366;2024-01-30T06:37:05;2.10;47.70
80367;DHT22;70058;42.660;23.366;2024-01-30T06:39:31;1.70;48.20
80367;DHT22;70058;42.660;23.366;2024-01-30T06:41:57;1.70;48.80
80367;DHT22;70058;42.660;23.366;2024-01-30T06:44:22;1.60;49.00
80367;DHT22;70058;42.660;23.366;2024-01-30T06:46:48;1.90;49.80
80367;DHT22;70058;42.660;23.366;2024-01-30T06:49:15;2.20;49.20
80367;DHT22;70058;42.660;23.366;2024-01-30T06:51:40;1.70;48.10
80367;DHT22;70058;42.660;23.366;2024-01-30T06:54:06;1.90;49.10
80367;DHT22;70058;42.660;23.366;2024-01-30T06:56:32;2.20;49.10
80367;DHT22;70058;42.660;23.366;2024-01-30T06:58:57;2.50;48.50
80367;DHT22;70058;42.660;23.366;2024-01-30T07:01:31;2.00;46.90
80367;DHT22;70058;42.660;23.366;2024-01-30T07:03:57;1.80;49.00
80367;DHT22;70058;42.660;23.366;2024-01-30T07:06:23;2.20;49.10
80367;DHT22;70058;42.660;23.366;2024-01-30T07:08:50;2.50;48.60
80367;DHT22;70058;42.660;23.366;2024-01-30T07:11:20;2.80;47.80
80367;DHT22;70058;42.660;23.366;2024-01-30T07:13:47;2.90;46.90
80367;DHT22;70058;42.660;23.366;2024-01-30T07:16:14;2.40;45.60
80367;DHT22;70058;42.660;23.366;2024-01-30T07:18:40;2.20;47.30
80367;DHT22;70058;42.660;23.366;2024-01-30T07:21:05;2.40;48.10
80367;DHT22;70058;42.660;23.366;2024-01-30T07:23:31;2.70;47.30
80367;DHT22;70058;42.660;23.366;2024-01-30T07:25:57;2.90;47.50
80367;DHT22;70058;42.660;23.366;2024-01-30T07:28:23;2.30;45.50
80367;DHT22;70058;42.660;23.366;2024-01-30T07:30:49;2.60;46.70
80367;DHT22;70058;42.660;23.366;2024-01-30T07:33:15;2.80;46.20
80367;DHT22;70058;42.660;23.366;2024-01-30T07:35:41;3.10;45.50
80367;DHT22;70058;42.660;23.366;2024-01-30T07:38:07;3.30;45.10
80367;DHT22;70058;42.660;23.366;2024-01-30T07:40:32;3.50;45.10
80367;DHT22;70058;42.660;23.366;2024-01-30T07:42:59;3.70;44.30
80367;DHT22;70058;42.660;23.366;2024-01-30T07:45:25;3.80;44.20
80367;DHT22;70058;42.660;23.366;2024-01-30T07:47:53;3.80;43.70
80367;DHT22;70058;42.660;23.366;2024-01-30T07:50:18;3.90;42.70
80367;DHT22;70058;42.660;23.366;2024-01-30T07:52:44;3.70;42.80
80367;DHT22;70058;42.660;23.366;2024-01-30T07:55:10;3.60;42.20
80367;DHT22;70058;42.660;23.366;2024-01-30T07:57:38;3.40;43.10
80367;DHT22;70058;42.660;23.366;2024-01-30T08:00:04;3.50;43.50
80367;DHT22;70058;42.660;23.366;2024-01-30T08:02:32;3.80;42.80
80367;DHT22;70058;42.660;23.366;2024-01-30T08:04:58;3.80;42.60
80367;DHT22;70058;42.660;23.366;2024-01-30T08:07:23;4.00;41.60
80367;DHT22;70058;42.660;23.366;2024-01-30T08:09:50;4.10;41.60
80367;DHT22;70058;42.660;23.366;2024-01-30T08:12:15;4.20;41.50
80367;DHT22;70058;42.660;23.366;2024-01-30T08:14:41;4.10;41.60
80367;DHT22;70058;42.660;23.366;2024-01-30T08:17:07;4.20;41.80
80367;DHT22;70058;42.660;23.366;2024-01-30T08:19:33;4.20;41.40
80367;DHT22;70058;42.660;23.366;2024-01-30T08:21:59;3.80;41.40
80367;DHT22;70058;42.660;23.366;2024-01-30T08:24:25;3.80;41.80
80367;DHT22;70058;42.660;23.366;2024-01-30T08:26:50;3.90;42.70
80367;DHT22;70058;42.660;23.366;2024-01-30T08:29:16;4.10;42.50
80367;DHT22;70058;42.660;23.366;2024-01-30T08:31:42;4.10;41.70
80367;DHT22;70058;42.660;23.366;2024-01-30T08:34:08;4.20;42.00
80367;DHT22;70058;42.660;23.366;2024-01-30T08:36:34;4.30;41.50
80367;DHT22;70058;42.660;23.366;2024-01-30T08:38:59;4.50;41.20
80367;DHT22;70058;42.660;23.366;2024-01-30T08:41:25;4.60;41.00
80367;DHT22;70058;42.660;23.366;2024-01-30T08:43:52;5.00;40.20
80367;DHT22;70058;42.660;23.366;2024-01-30T08:46:18;4.70;40.20
80367;DHT22;70058;42.660;23.366;2024-01-30T08:48:44;5.00;40.70
80367;DHT22;70058;42.660;23.366;2024-01-30T08:51:10;5.10;40.60
80367;DHT22;70058;42.660;23.366;2024-01-30T08:53:36;5.10;40.20
80367;DHT22;70058;42.660;23.366;2024-01-30T08:56:03;5.50;39.60
80367;DHT22;70058;42.660;23.366;2024-01-30T08:58:29;5.60;38.60
80367;DHT22;70058;42.660;23.366;2024-01-30T09:00:55;4.70;41.20
80367;DHT22;70058;42.660;23.366;2024-01-30T09:03:20;5.40;40.90
80367;DHT22;70058;42.660;23.366;2024-01-30T09:05:47;5.60;40.60
80367;DHT22;70058;42.660;23.366;2024-01-30T09:08:15;6.10;39.60
80367;DHT22;70058;42.660;23.366;2024-01-30T09:10:41;6.40;38.70
80367;DHT22;70058;42.660;23.366;2024-01-30T09:13:06;6.50;38.30
80367;DHT22;70058;42.660;23.366;2024-01-30T09:15:32;6.60;38.60
80367;DHT22;70058;42.660;23.366;2024-01-30T09:17:58;6.60;38.40
80367;DHT22;70058;42.660;23.366;2024-01-30T09:20:23;6.50;38.60
80367;DHT22;70058;42.660;23.366;2024-01-30T09:22:49;6.50;38.50
80367;DHT22;70058;42.660;23.366;2024-01-30T09:25:15;6.60;37.90
80367;DHT22;70058;42.660;23.366;2024-01-30T09:27:41;6.20;38.60
80367;DHT22;70058;42.660;23.366;2024-01-30T09:30:07;6.30;38.80
80367;DHT22;70058;42.660;23.366;2024-01-30T09:32:33;6.40;38.50
80367;DHT22;70058;42.660;23.366;2024-01-30T09:34:59;6.40;38.40
80367;DHT22;70058;42.660;23.366;2024-01-30T09:37:24;6.50;38.10
80367;DHT22;70058;42.660;23.366;2024-01-30T09:39:50;6.50;38.20
80367;DHT22;70058;42.660;23.366;2024-01-30T09:42:34;6.10;39.00
80367;DHT22;70058;42.660;23.366;2024-01-30T09:45:04;5.60;40.00
80367;DHT22;70058;42.660;23.366;2024-01-30T09:47:43;5.60;39.90
80367;DHT22;70058;42.660;23.366;2024-01-30T09:50:09;5.40;40.00
80367;DHT22;70058;42.660;23.366;2024-01-30T09:52:35;5.30;40.10
80367;DHT22;70058;42.660;23.366;2024-01-30T09:55:02;5.00;40.70
80367;DHT22;70058;42.660;23.366;2024-01-30T09:57:28;4.80;40.80
80367;DHT22;70058;42.660;23.366;2024-01-30T09:59:54;4.80;41.20
80367;DHT22;70058;42.660;23.366;2024-01-30T10:02:20;4.60;42.00
80367;DHT22;70058;42.660;23.366;2024-01-30T10:04:50;4.70;42.30
80367;DHT22;70058;42.660;23.366;2024-01-30T10:07:19;4.10;42.80
80367;DHT22;70058;42.660;23.366;2024-01-30T10:09:46;4.10;43.90
80367;DHT22;70058;42.660;23.366;2024-01-30T10:12:12;4.10;42.30
80367;DHT22;70058;42.660;23.366;2024-01-30T10:14:42;4.30;42.50
80367;DHT22;70058;42.660;23.366;2024-01-30T10:17:12;4.30;42.40
80367;DHT22;70058;42.660;23.366;2024-01-30T10:19:39;4.40;42.40
80367;DHT22;70058;42.660;23.366;2024-01-30T10:22:05;4.80;42.30
80367;DHT22;70058;42.660;23.366;2024-01-30T10:24:31;4.80;41.70
80367;DHT22;70058;42.660;23.366;2024-01-30T10:26:59;4.70;41.30
80367;DHT22;70058;42.660;23.366;2024-01-30T10:29:26;4.90;41.50
80367;DHT22;70058;42.660;23.366;2024-01-30T10:32:03;5.20;40.70
80367;DHT22;70058;42.660;23.366;2024-01-30T10:34:29;5.60;40.50
80367;DHT22;70058;42.660;23.366;2024-01-30T10:37:08;6.00;39.70
80367;DHT22;70058;42.660;23.366;2024-01-30T10:39:44;6.50;39.10
80367;DHT22;70058;42.660;23.366;2024-01-30T10:42:15;6.30;38.40
80367;DHT22;70058;42.660;23.366;2024-01-30T10:47:31;6.50;38.30
80367;DHT22;70058;42.660;23.366;2024-01-30T10:49:59;6.70;38.00
80367;DHT22;70058;42.660;23.366;2024-01-30T10:52:26;6.70;37.20
80367;DHT22;70058;42.660;23.366;2024-01-30T10:54:55;6.50;37.90
80367;DHT22;70058;42.660;23.366;2024-01-30T10:57:23;6.40;38.20
80367;DHT22;70058;42.660;23.366;2024-01-30T10:59:49;6.10;38.40
80367;DHT22;70058;42.660;23.366;2024-01-30T11:02:16;6.20;38.50
80367;DHT22;70058;42.660;23.366;2024-01-30T11:04:43;6.10;38.50
80367;DHT22;70058;42.660;23.366;2024-01-30T11:07:23;5.50;38.80
80367;DHT22;70058;42.660;23.366;2024-01-30T11:12:24;4.30;42.20
80367;DHT22;70058;42.660;23.366;2024-01-30T11:15:14;4.50;42.90
80367;DHT22;70058;42.660;23.366;2024-01-30T11:17:58;4.70;42.40
80367;DHT22;70058;42.660;23.366;2024-01-30T11:20:31;4.90;41.10
80367;DHT22;70058;42.660;23.366;2024-01-30T11:22:57;5.10;41.00
80367;DHT22;70058;42.660;23.366;2024-01-30T11:25:25;5.40;41.10
80367;DHT22;70058;42.660;23.366;2024-01-30T11:27:54;5.80;39.90
80367;DHT22;70058;42.660;23.366;2024-01-30T11:30:30;6.20;39.10
80367;DHT22;70058;42.660;23.366;2024-01-30T11:33:06;5.80;39.20
80367;DHT22;70058;42.660;23.366;2024-01-30T11:35:33;5.60;39.80
80367;DHT22;70058;42.660;23.366;2024-01-30T11:38:00;5.50;39.70
80367;DHT22;70058;42.660;23.366;2024-01-30T11:40:30;5.70;39.80
80367;DHT22;70058;42.660;23.366;2024-01-30T11:42:56;5.20;40.20
80367;DHT22;70058;42.660;23.366;2024-01-30T11:45:23;5.50;41.10
80367;DHT22;70058;42.660;23.366;2024-01-30T11:47:52;5.80;40.20
80367;DHT22;70058;42.660;23.366;2024-01-30T11:50:19;5.70;40.80
80367;DHT22;70058;42.660;23.366;2024-01-30T11:52:44;6.00;40.40
80367;DHT22;70058;42.660;23.366;2024-01-30T11:55:11;6.20;39.40
80367;DHT22;70058;42.660;23.366;2024-01-30T11:57:37;6.20;39.40
80367;DHT22;70058;42.660;23.366;2024-01-30T12:00:04;6.20;39.30
80367;DHT22;70058;42.660;23.366;2024-01-30T12:02:38;5.50;40.10
80367;DHT22;70058;42.660;23.366;2024-01-30T12:05:07;5.00;40.90
80367;DHT22;70058;42.660;23.366;2024-01-30T12:07:33;5.10;41.90
80367;DHT22;70058;42.660;23.366;2024-01-30T12:09:59;5.20;41.30
80367;DHT22;70058;42.660;23.366;2024-01-30T12:12:26;5.10;41.10
80367;DHT22;70058;42.660;23.366;2024-01-30T12:14:53;5.20;41.50
80367;DHT22;70058;42.660;23.366;2024-01-30T12:17:30;5.10;40.90
80367;DHT22;70058;42.660;23.366;2024-01-30T12:20:10;5.20;41.40
80367;DHT22;70058;42.660;23.366;2024-01-30T12:22:43;4.70;41.20
80367;DHT22;70058;42.660;23.366;2024-01-30T12:25:14;4.50;42.60
80367;DHT22;70058;42.660;23.366;2024-01-30T12:27:44;4.70;42.90
80367;DHT22;70058;42.660;23.366;2024-01-30T12:30:11;4.70;42.30
80367;DHT22;70058;42.660;23.366;2024-01-30T12:32:45;4.60;42.90
80367;DHT22;70058;42.660;23.366;2024-01-30T12:35:19;5.00;41.90
80367;DHT22;70058;42.660;23.366;2024-01-30T12:37:46;4.40;42.20
80367;DHT22;70058;42.660;23.366;2024-01-30T12:40:14;4.30;42.70
80367;DHT22;70058;42.660;23.366;2024-01-30T12:42:40;4.40;43.50
80367;DHT22;70058;42.660;23.366;2024-01-30T12:45:08;4.30;43.30
80367;DHT22;70058;42.660;23.366;2024-01-30T12:47:34;4.20;43.80
80367;DHT22;70058;42.660;23.366;2024-01-30T12:50:00;4.40;43.60
80367;DHT22;70058;42.660;23.366;2024-01-30T12:52:26;4.30;42.80
80367;DHT22;70058;42.660;23.366;2024-01-30T12:54:52;4.50;43.00
80367;DHT22;70058;42.660;23.366;2024-01-30T12:57:18;4.80;42.90
80367;DHT22;70058;42.660;23.366;2024-01-30T12:59:45;4.80;42.10
80367;DHT22;70058;42.660;23.366;2024-01-30T13:02:13;4.60;42.50
80367;DHT22;70058;42.660;23.366;2024-01-30T13:04:39;4.50;42.70
80367;DHT22;70058;42.660;23.366;2024-01-30T13:07:05;4.70;43.00
80367;DHT22;70058;42.660;23.366;2024-01-30T13:09:32;4.70;42.40
80367;DHT22;70058;42.660;23.366;2024-01-30T13:11:59;4.80;42.80
80367;DHT22;70058;42.660;23.366;2024-01-30T13:14:25;4.80;42.40
80367;DHT22;70058;42.660;23.366;2024-01-30T13:16:51;5.00;42.10
80367;DHT22;70058;42.660;23.366;2024-01-30T13:19:17;5.20;42.40
80367;DHT22;70058;42.660;23.366;2024-01-30T13:21:44;4.80;42.70
80367;DHT22;70058;42.660;23.366;2024-01-30T13:24:10;4.60;42.40
80367;DHT22;70058;42.660;23.366;2024-01-30T13:26:36;4.60;43.10
80367;DHT22;70058;42.660;23.366;2024-01-30T13:29:02;4.70;42.90
80367;DHT22;70058;42.660;23.366;2024-01-30T13:31:28;4.50;43.60
80367;DHT22;70058;42.660;23.366;2024-01-30T13:33:54;4.70;43.20
80367;DHT22;70058;42.660;23.366;2024-01-30T13:36:21;4.90;42.90
80367;DHT22;70058;42.660;23.366;2024-01-30T13:38:47;5.10;42.60
80367;DHT22;70058;42.660;23.366;2024-01-30T13:41:12;5.10;42.50
80367;DHT22;70058;42.660;23.366;2024-01-30T13:43:38;5.20;42.20
80367;DHT22;70058;42.660;23.366;2024-01-30T13:46:04;5.00;42.00
80367;DHT22;70058;42.660;23.366;2024-01-30T13:48:30;5.10;42.40
80367;DHT22;70058;42.660;23.366;2024-01-30T13:50:56;5.10;42.50
80367;DHT22;70058;42.660;23.366;2024-01-30T13:53:22;5.30;42.30
80367;DHT22;70058;42.660;23.366;2024-01-30T13:55:48;5.40;42.10
80367;DHT22;70058;42.660;23.366;2024-01-30T13:58:13;4.80;43.20
80367;DHT22;70058;42.660;23.366;2024-01-30T14:00:39;4.60;43.50
80367;DHT22;70058;42.660;23.366;2024-01-30T14:03:05;4.70;43.80
80367;DHT22;70058;42.660;23.366;2024-01-30T14:05:31;4.20;44.00
80367;DHT22;70058;42.660;23.366;2024-01-30T14:07:58;4.10;45.40
80367;DHT22;70058;42.660;23.366;2024-01-30T14:10:25;4.10;45.30
80367;DHT22;70058;42.660;23.366;2024-01-30T14:12:51;4.30;44.80
80367;DHT22;70058;42.660;23.366;2024-01-30T14:15:19;4.30;44.70
80367;DHT22;70058;42.660;23.366;2024-01-30T14:17:45;4.20;44.40
80367;DHT22;70058;42.660;23.366;2024-01-30T14:20:11;4.10;44.90
80367;DHT22;70058;42.660;23.366;2024-01-30T14:22:37;4.40;45.50
80367;DHT22;70058;42.660;23.366;2024-01-30T14:25:03;4.10;44.10
80367;DHT22;70058;42.660;23.366;2024-01-30T14:27:32;3.80;45.10
80367;DHT22;70058;42.660;23.366;2024-01-30T14:29:58;3.90;45.50
80367;DHT22;70058;42.660;23.366;2024-01-30T14:32:24;3.90;45.10
80367;DHT22;70058;42.660;23.366;2024-01-30T14:34:51;4.10;45.90
80367;DHT22;70058;42.660;23.366;2024-01-30T14:37:20;4.20;45.00
80367;DHT22;70058;42.660;23.366;2024-01-30T14:39:47;4.00;44.70
80367;DHT22;70058;42.660;23.366;2024-01-30T14:42:14;3.60;45.60
80367;DHT22;70058;42.660;23.366;2024-01-30T14:44:41;3.60;46.40
80367;DHT22;70058;42.660;23.366;2024-01-30T14:47:06;3.50;46.70
80367;DHT22;70058;42.660;23.366;2024-01-30T14:49:33;3.50;46.30
80367;DHT22;70058;42.660;23.366;2024-01-30T14:51:59;3.40;47.40
80367;DHT22;70058;42.660;23.366;2024-01-30T14:54:26;3.50;47.20
80367;DHT22;70058;42.660;23.366;2024-01-30T14:56:52;3.60;46.60
80367;DHT22;70058;42.660;23.366;2024-01-30T14:59:18;3.80;47.10
80367;DHT22;70058;42.660;23.366;2024-01-30T15:01:47;4.00;46.50
80367;DHT22;70058;42.660;23.366;2024-01-30T15:04:15;4.10;45.90
80367;DHT22;70058;42.660;23.366;2024-01-30T15:06:41;4.00;45.70
80367;DHT22;70058;42.660;23.366;2024-01-30T15:09:13;4.10;45.70
80367;DHT22;70058;42.660;23.366;2024-01-30T15:11:41;3.60;46.60
80367;DHT22;70058;42.660;23.366;2024-01-30T15:14:07;3.40;46.50
80367;DHT22;70058;42.660;23.366;2024-01-30T15:16:33;3.50;46.80
80367;DHT22;70058;42.660;23.366;2024-01-30T15:18:58;2.80;47.90
80367;DHT22;70058;42.660;23.366;2024-01-30T15:21:24;3.10;48.30
80367;DHT22;70058;42.660;23.366;2024-01-30T15:23:50;3.20;47.70
80367;DHT22;70058;42.660;23.366;2024-01-30T15:26:15;3.50;48.20
80367;DHT22;70058;42.660;23.366;2024-01-30T15:28:41;3.60;46.50
80367;DHT22;70058;42.660;23.366;2024-01-30T15:31:07;3.30;46.70
80367;DHT22;70058;42.660;23.366;2024-01-30T15:33:33;3.40;47.40